createdAt,value
2023-02-20T00:02:13.725Z,2520
2023-02-20T00:07:44.278Z,2522
2023-02-20T00:13:14.760Z,2523
2023-02-20T00:18:45.244Z,2523
2023-02-20T00:24:15.819Z,2553
2023-02-20T00:29:46.301Z,2482
2023-02-20T00:35:16.804Z,2503
2023-02-20T00:40:47.383Z,2495
2023-02-20T00:46:17.992Z,2508
2023-02-20T00:51:48.605Z,2501
2023-02-20T00:57:19.046Z,2508
2023-02-20T01:02:49.565Z,2505
2023-02-20T01:09:26.181Z,2498
2023-02-20T01:14:56.664Z,2486
2023-02-20T01:20:27.143Z,2479
2023-02-20T01:25:56.615Z,2496
2023-02-20T01:31:27.608Z,2497
2023-02-20T01:36:57.688Z,2481
2023-02-20T01:42:28.174Z,2475
2023-02-20T01:47:58.651Z,2476
2023-02-20T01:53:28.157Z,2479
2023-02-20T01:58:58.629Z,2475
2023-02-20T02:04:29.316Z,2493
2023-02-20T02:09:59.641Z,2462
2023-02-20T02:15:30.283Z,2470
2023-02-20T02:21:00.718Z,2465
2023-02-20T02:26:31.317Z,2475
2023-02-20T02:32:01.888Z,2471
2023-02-20T02:37:32.408Z,2464
2023-02-20T02:43:03.012Z,2478
2023-02-20T02:48:33.468Z,2493
2023-02-20T02:54:03.984Z,2521
2023-02-20T02:59:34.570Z,2489
2023-02-20T03:05:05.126Z,2501
2023-02-20T03:10:34.612Z,2495
2023-02-20T03:16:05.251Z,2461
2023-02-20T03:21:35.707Z,2467
2023-02-20T03:27:06.160Z,2468
2023-02-20T03:32:36.827Z,2457
2023-02-20T03:38:07.254Z,2459
2023-02-20T03:43:37.712Z,2466
2023-02-20T03:49:08.338Z,2476
2023-02-20T03:54:38.791Z,2462
2023-02-20T04:00:09.280Z,2439
2023-02-20T04:05:39.885Z,2446
2023-02-20T04:11:10.338Z,2430
2023-02-20T04:16:40.882Z,2422
2023-02-20T04:22:10.339Z,2415
2023-02-20T04:27:40.820Z,2455
2023-02-20T04:33:11.407Z,2432
2023-02-20T04:38:41.933Z,2439
2023-02-20T04:44:12.351Z,2455
2023-02-20T04:49:41.828Z,2443
2023-02-20T04:55:12.421Z,2430
2023-02-20T05:00:42.754Z,2427
2023-02-20T05:06:13.685Z,2429
2023-02-20T05:11:43.981Z,2429
2023-02-20T05:17:13.465Z,2419
2023-02-20T05:22:43.923Z,2422
2023-02-20T05:28:14.454Z,2430
2023-02-20T05:33:45.033Z,2412
2023-02-20T05:39:15.471Z,2395
2023-02-20T05:44:45.970Z,2415
2023-02-20T05:50:15.452Z,2406
2023-02-20T05:55:45.937Z,2312
2023-02-20T06:01:16.453Z,2251
2023-02-20T06:06:46.988Z,2199
2023-02-20T06:12:17.571Z,2151
2023-02-20T06:17:48.183Z,2109
2023-02-20T06:23:18.634Z,2073
2023-02-20T06:28:49.110Z,2061
2023-02-20T06:34:18.632Z,2064
2023-02-20T06:39:49.089Z,2046
2023-02-20T06:45:19.573Z,2041
2023-02-20T06:50:50.169Z,2022
2023-02-20T06:56:20.786Z,2016
2023-02-20T07:01:50.313Z,2012
2023-02-20T07:07:20.786Z,2001
2023-02-20T07:12:51.250Z,1990
2023-02-20T07:18:21.856Z,1872
2023-02-20T07:23:52.327Z,1811
2023-02-20T07:29:22.776Z,1706
2023-02-20T07:35:03.774Z,1642
2023-02-20T07:40:24.003Z,1610
2023-02-20T07:45:54.473Z,1586
2023-02-20T07:51:23.942Z,1564
2023-02-20T07:56:54.440Z,1538
2023-02-20T08:02:25.037Z,1522
2023-02-20T08:07:55.473Z,1511
2023-02-20T08:13:25.974Z,1494
2023-02-20T08:18:55.495Z,1481
2023-02-20T08:24:25.928Z,1480
2023-02-20T08:29:56.556Z,1485
2023-02-20T08:35:27.154Z,1484
2023-02-20T08:40:57.533Z,1496
2023-02-20T08:46:27.075Z,1506
2023-02-20T08:51:57.639Z,1503
2023-02-20T08:57:27.981Z,1503
2023-02-20T09:02:57.659Z,1506
2023-02-20T09:08:27.986Z,1499
2023-02-20T09:13:58.429Z,1504
2023-02-20T09:19:29.175Z,1508
2023-02-20T09:24:59.519Z,1506
2023-02-20T09:30:30.478Z,1503
2023-02-20T09:36:00.685Z,1500
2023-02-20T09:41:31.150Z,1176
2023-02-20T09:47:00.624Z,1087
2023-02-20T09:52:31.138Z,1088
2023-02-20T09:58:00.580Z,1102
2023-02-20T10:03:31.093Z,1098
2023-02-20T10:09:01.563Z,1082
2023-02-20T10:14:32.129Z,1077
2023-02-20T10:20:02.590Z,1080
2023-02-20T10:25:33.090Z,1084
2023-02-20T10:31:02.579Z,1071
2023-02-20T10:36:33.047Z,1074
2023-02-20T10:42:02.541Z,1072
2023-02-20T10:47:32.998Z,1056
2023-02-20T10:53:03.473Z,1022
2023-02-20T10:58:34.099Z,983
2023-02-20T11:04:04.590Z,955
2023-02-20T11:09:35.031Z,935
2023-02-20T11:15:05.659Z,922
2023-02-20T11:20:36.090Z,912
2023-02-20T11:26:06.575Z,899
2023-02-20T11:31:37.386Z,896
2023-02-20T11:37:07.645Z,889
2023-02-20T11:42:37.131Z,879
2023-02-20T11:48:07.701Z,880
2023-02-20T11:53:38.155Z,879
2023-02-20T11:59:08.764Z,877
2023-02-20T12:04:39.287Z,877
2023-02-20T12:10:09.697Z,874
2023-02-20T12:15:39.184Z,870
2023-02-20T12:21:09.702Z,870
2023-02-20T12:26:39.180Z,867
2023-02-20T12:32:09.834Z,869
2023-02-20T12:37:40.125Z,865
2023-02-20T12:43:10.581Z,866
2023-02-20T12:48:41.176Z,863
2023-02-20T12:54:11.695Z,872
2023-02-20T12:59:42.145Z,868
2023-02-20T13:05:11.630Z,871
2023-02-20T13:10:42.157Z,870
2023-02-20T13:16:12.931Z,872
2023-02-20T13:21:43.188Z,865
2023-02-20T13:27:13.678Z,871
2023-02-20T13:32:44.255Z,861
2023-02-20T13:38:14.727Z,861
2023-02-20T13:43:45.240Z,863
2023-02-20T13:49:14.677Z,861
2023-02-20T13:54:45.143Z,862
2023-02-20T14:00:15.693Z,856
2023-02-20T14:05:46.241Z,857
2023-02-20T14:11:16.816Z,861
2023-02-20T14:16:47.543Z,861
2023-02-20T14:22:17.900Z,853
2023-02-20T14:27:50.315Z,857
2023-02-20T14:33:19.004Z,854
2023-02-20T14:38:49.529Z,846
2023-02-20T14:44:20.135Z,848
2023-02-20T14:49:50.654Z,852
2023-02-20T14:55:20.093Z,853
2023-02-20T15:00:50.565Z,859
2023-02-20T15:06:21.085Z,857
2023-02-20T15:11:51.629Z,859
2023-02-20T15:17:22.135Z,856
2023-02-20T15:22:52.874Z,856
2023-02-20T15:28:23.335Z,852
2023-02-20T15:33:53.771Z,852
2023-02-20T15:39:23.297Z,850
2023-02-20T15:44:53.727Z,845
2023-02-20T15:50:24.236Z,844
2023-02-20T15:55:54.824Z,848
2023-02-20T16:01:25.358Z,850
2023-02-20T16:06:55.769Z,843
2023-02-20T16:12:25.274Z,845
2023-02-20T16:17:55.819Z,851
2023-02-20T16:23:26.403Z,843
2023-02-20T16:28:56.908Z,843
2023-02-20T16:34:27.349Z,844
2023-02-20T16:39:56.851Z,845
2023-02-20T16:45:27.359Z,844
2023-02-20T16:50:57.854Z,843
2023-02-20T16:56:28.418Z,846
2023-02-20T17:01:59.134Z,842
2023-02-20T17:07:29.470Z,847
2023-02-20T17:13:00.064Z,850
2023-02-20T17:18:30.562Z,847
2023-02-20T17:24:01.007Z,844
2023-02-20T17:29:31.608Z,844
2023-02-20T17:35:02.118Z,837
2023-02-20T17:40:32.772Z,839
2023-02-20T17:46:03.148Z,838
2023-02-20T17:51:33.645Z,838
2023-02-20T17:57:04.109Z,837
2023-02-20T18:02:33.860Z,838
2023-02-20T18:08:03.130Z,834
2023-02-20T18:13:33.545Z,825
2023-02-20T18:19:04.052Z,826
2023-02-20T18:24:34.831Z,830
2023-02-20T18:30:05.183Z,824
2023-02-20T18:35:35.734Z,826
2023-02-20T18:41:06.195Z,828
2023-02-20T18:46:36.665Z,829
2023-02-20T18:52:06.148Z,822
2023-02-20T18:57:36.624Z,823
2023-02-20T19:03:07.112Z,816
2023-02-20T19:08:37.856Z,816
2023-02-20T19:14:08.364Z,817
2023-02-20T19:19:37.750Z,819
2023-02-20T19:25:08.239Z,814
2023-02-20T19:30:38.740Z,819
2023-02-20T19:36:10.500Z,818
2023-02-20T19:41:39.796Z,888
2023-02-20T19:47:10.364Z,1015
2023-02-20T19:52:40.918Z,1114
2023-02-20T19:58:11.381Z,1210
2023-02-20T20:03:41.888Z,1278
2023-02-20T20:09:16.797Z,1343
2023-02-20T20:14:41.849Z,1401
2023-02-20T20:20:12.472Z,1499
2023-02-20T20:25:43.441Z,1471
2023-02-20T20:31:13.703Z,1527
2023-02-20T20:36:43.056Z,1616
2023-02-20T20:42:13.508Z,1587
2023-02-20T20:47:43.990Z,1662
2023-02-20T20:53:13.511Z,1684
2023-02-20T20:58:43.975Z,1694
2023-02-20T21:04:14.454Z,1718
2023-02-20T21:09:45.065Z,1722
2023-02-20T21:15:15.522Z,1776
2023-02-20T21:20:46.110Z,1765
2023-02-20T21:26:16.630Z,1763
2023-02-20T21:31:47.364Z,1828
2023-02-20T21:37:17.777Z,1847
2023-02-20T21:42:48.296Z,1870
2023-02-20T21:49:24.846Z,1841
2023-02-20T21:54:54.338Z,1850
2023-02-20T22:00:24.858Z,1834
2023-02-20T22:05:55.416Z,1818
2023-02-20T22:11:25.893Z,1799
2023-02-20T22:16:56.549Z,1798
2023-02-20T22:22:26.033Z,1786
2023-02-20T22:27:56.483Z,1783
2023-02-20T22:33:27.001Z,1793
2023-02-20T22:38:57.850Z,1795
2023-02-20T22:44:28.052Z,1791
2023-02-20T22:49:58.541Z,1806
2023-02-20T22:55:28.021Z,1802
2023-02-20T23:00:58.523Z,1804
2023-02-20T23:06:29.096Z,1921
2023-02-20T23:11:59.593Z,1929
2023-02-20T23:17:36.728Z,1924
2023-02-20T23:22:59.586Z,1879
2023-02-20T23:28:36.956Z,1900
2023-02-20T23:33:59.498Z,1900
2023-02-20T23:39:30.017Z,1894
2023-02-20T23:45:00.592Z,1900
2023-02-20T23:51:37.169Z,1915
2023-02-20T23:57:07.646Z,1949
